KHST

Homestead ARB Airport

Homestead, Florida, USA
TAF KHST 251600Z 2516/2622 11009KT 9999 VCSH FEW030 SCT050 QNH2996INS BECMG 2602/2603 09006KT 9999 NSW SCT020 QNH3003INS BECMG 2614/2615 10009KT 9999 VCSH SCT030 QNH2998INS TX31/2517Z TN26/2608Z
Issued Valid From Valid To
Sep-25 @ 16:00 UTC
(an hour ago)
Sep-25 @ 16:00 UTC
(an hour ago)
Sep-26 @ 22:00 UTC
(-1 days ago)
Sep-25 @ 16:00 to Sep-26 @ 02:00
TAF KHST 251600Z 2516/2622 11009KT 9999 VCSH FEW030 SCT050 QNH2996INS
Wind Visibility Clouds Readings
110° at 9 knots Greater than 6 miles
  • Few at 3,000' AGL
  • Scattered at 5,000' AGL
Altimeter 29.97" Hg
Pressure 1015 hPa
Becoming Sep-26 @ 02:00 to Sep-26 @ 14:00
BECMG 2602/2603 09006KT 9999 NSW SCT020 QNH3003INS
Wind Visibility Clouds Conditions Readings
90° at 6 knots Greater than 6 miles
  • Scattered at 2,000' AGL
Altimeter 30.03" Hg
Pressure 1017 hPa
Becoming Sep-26 @ 14:00 to Sep-26 @ 22:00
BECMG 2614/2615 10009KT 9999 VCSH SCT030 QNH2998INS TX31/2517Z TN26/2608Z
Wind Visibility Clouds Readings
100° at 9 knots Greater than 6 miles
  • Scattered at 3,000' AGL
Altimeter 29.97" Hg
Pressure 1015 hPa
TAF KHST 251600Z 2516/2622 11009KT 9999 VCSH FEW030 SCT050 QNH2996INS BECMG 2602/2603 09006KT 9999 NSW SCT020 QNH3003INS BECMG 2614/2615 10009KT 9999 VCSH SCT030 QNH2998INS TX31/2517Z TN26/2608Z
Issued Sep-25 @ 16:00 UTC
(an hour ago)
Valid From Sep-25 @ 16:00 UTC
(an hour ago)
Valid To Sep-26 @ 22:00 UTC
(-1 days ago)
Sep-25 @ 16:00 - Sep-26 @ 02:00
Wind Visibility
110° at 9 knots Greater than 6 miles
Clouds
  • Few at 3,000' AGL
  • Scattered at 5,000' AGL
Becoming Sep-26 @ 02:00 - Sep-26 @ 14:00
Wind Visibility
90° at 6 knots Greater than 6 miles
Clouds
  • Scattered at 2,000' AGL
Conditions
Becoming Sep-26 @ 14:00 - Sep-26 @ 22:00
Wind Visibility
100° at 9 knots Greater than 6 miles
Clouds
  • Scattered at 3,000' AGL